createdAt,value
2018-06-05T00:00:30.308Z,62.19
2018-06-05T00:01:30.301Z,61.43
2018-06-05T00:02:30.321Z,63.16
2018-06-05T00:03:30.292Z,60.66
2018-06-05T00:04:30.291Z,60.28
2018-06-05T00:05:30.284Z,60.08
2018-06-05T00:06:30.283Z,62.29
2018-06-05T00:07:30.288Z,59.80
2018-06-05T00:08:30.272Z,60.08
2018-06-05T00:09:30.270Z,60.95
2018-06-05T00:10:30.283Z,59.70
2018-06-05T00:11:30.294Z,59.80
2018-06-05T00:12:30.253Z,59.99
2018-06-05T00:13:30.264Z,60.47
2018-06-05T00:14:30.252Z,59.89
2018-06-05T00:15:30.245Z,60.28
2018-06-05T00:16:30.238Z,60.38
2018-06-05T00:17:30.256Z,60.57
2018-06-05T00:18:30.233Z,59.61
2018-06-05T00:19:30.225Z,59.03
2018-06-05T00:20:30.221Z,58.74
2018-06-05T00:21:30.217Z,58.07
2018-06-05T00:22:30.212Z,58.55
2018-06-05T00:23:30.220Z,58.26
2018-06-05T00:24:30.208Z,57.21
2018-06-05T00:25:30.203Z,57.01
2018-06-05T00:26:30.197Z,57.01
2018-06-05T00:27:30.194Z,58.36
2018-06-05T00:28:30.183Z,56.92
2018-06-05T00:29:30.199Z,57.11
2018-06-05T00:30:30.191Z,58.36
2018-06-05T00:31:30.174Z,57.78
2018-06-05T00:32:30.172Z,57.50
2018-06-05T00:33:30.179Z,57.40
2018-06-05T00:34:30.162Z,58.74
2018-06-05T00:35:30.158Z,57.21
2018-06-05T00:36:30.153Z,60.18
2018-06-05T00:37:30.151Z,59.80
2018-06-05T00:38:30.143Z,59.03
2018-06-05T00:39:30.151Z,58.36
2018-06-05T00:40:30.138Z,58.64
2018-06-05T00:41:30.134Z,58.55
2018-06-05T00:42:30.127Z,58.26
2018-06-05T00:43:30.127Z,58.36
2018-06-05T00:44:30.122Z,56.92
2018-06-05T00:45:30.113Z,56.12
2018-06-05T00:46:30.115Z,55.55
2018-06-05T00:47:30.107Z,55.55
2018-06-05T00:48:30.113Z,55.55
2018-06-05T00:49:30.095Z,55.64
2018-06-05T00:50:30.093Z,56.60
2018-06-05T00:51:30.092Z,56.60
2018-06-05T00:52:30.089Z,56.22
2018-06-05T00:53:30.083Z,55.83
2018-06-05T00:54:30.078Z,55.55
2018-06-05T00:55:30.071Z,55.55
2018-06-05T00:56:30.072Z,55.83
2018-06-05T00:57:30.058Z,56.12
2018-06-05T00:58:30.066Z,56.02
2018-06-05T00:59:30.057Z,56.02
2018-06-05T01:00:30.051Z,54.97
2018-06-05T01:01:30.043Z,56.41
2018-06-05T01:02:30.040Z,55.83
2018-06-05T01:03:30.042Z,54.78
2018-06-05T01:04:30.031Z,56.22
2018-06-05T01:05:30.024Z,55.64
2018-06-05T01:06:30.019Z,56.22
2018-06-05T01:07:30.029Z,56.70
2018-06-05T01:08:30.016Z,55.16
2018-06-05T01:09:30.007Z,55.74
2018-06-05T01:10:30.004Z,55.83
2018-06-05T01:11:29.999Z,55.45
2018-06-05T01:12:30.006Z,55.16
2018-06-05T01:13:29.997Z,55.55
2018-06-05T01:14:30.005Z,55.35
2018-06-05T01:15:29.987Z,55.74
2018-06-05T01:16:29.989Z,55.35
2018-06-05T01:17:29.973Z,55.45
2018-06-05T01:18:29.969Z,55.45
2018-06-05T01:19:29.964Z,55.45
2018-06-05T01:20:29.965Z,55.55
2018-06-05T01:21:29.960Z,57.37
2018-06-05T01:22:29.964Z,55.74
2018-06-05T01:23:29.955Z,56.51
2018-06-05T01:24:29.945Z,56.89
2018-06-05T01:25:29.946Z,56.31
2018-06-05T01:26:29.940Z,56.79
2018-06-05T01:27:29.958Z,56.98
2018-06-05T01:28:29.931Z,56.98
2018-06-05T01:29:29.927Z,57.75
2018-06-05T01:30:29.922Z,56.89
2018-06-05T01:31:29.915Z,55.83
2018-06-05T01:32:29.917Z,55.83
2018-06-05T01:33:29.908Z,56.12
2018-06-05T01:34:29.907Z,55.35
2018-06-05T01:35:29.899Z,55.35
2018-06-05T01:36:29.891Z,54.68
2018-06-05T01:37:29.887Z,55.83
2018-06-05T01:38:29.885Z,56.12
2018-06-05T01:39:29.879Z,55.83
2018-06-05T01:40:29.881Z,57.46
2018-06-05T01:41:29.872Z,56.41
2018-06-05T01:42:29.871Z,56.79
2018-06-05T01:43:29.861Z,56.79
2018-06-05T01:44:29.872Z,56.89
2018-06-05T01:45:29.861Z,56.60
2018-06-05T01:46:29.848Z,57.65
2018-06-05T01:47:29.840Z,57.18
2018-06-05T01:48:29.838Z,57.65
2018-06-05T01:49:29.834Z,57.56
2018-06-05T01:50:29.829Z,57.37
2018-06-05T01:51:29.866Z,57.37
2018-06-05T01:52:29.852Z,57.65
2018-06-05T01:53:29.817Z,57.46
2018-06-05T01:54:29.809Z,58.33
2018-06-05T01:55:29.808Z,56.89
2018-06-05T01:56:29.805Z,58.62
2018-06-05T01:57:29.815Z,57.65
2018-06-05T01:58:31.596Z,58.81
2018-06-05T01:59:29.788Z,57.56
2018-06-05T02:00:29.792Z,57.15
2018-06-05T02:01:29.778Z,56.86
2018-06-05T02:02:29.779Z,57.56
2018-06-05T02:03:29.770Z,57.63
2018-06-05T02:04:29.769Z,59.06
2018-06-05T02:05:29.763Z,58.87
2018-06-05T02:06:29.756Z,58.97
2018-06-05T02:07:29.752Z,60.12
2018-06-05T02:08:29.771Z,59.83
2018-06-05T02:09:29.744Z,59.16
2018-06-05T02:10:29.740Z,59.16
2018-06-05T02:11:29.742Z,58.87
2018-06-05T02:12:29.751Z,58.87
2018-06-05T02:13:29.724Z,59.74
2018-06-05T02:14:29.717Z,60.31
2018-06-05T02:15:29.722Z,61.37
2018-06-05T02:16:29.713Z,61.94
2018-06-05T02:17:29.706Z,61.56
2018-06-05T02:18:29.704Z,61.18
2018-06-05T02:19:29.701Z,61.37
2018-06-05T02:20:29.694Z,61.94
2018-06-05T02:21:29.687Z,64.43
2018-06-05T02:22:29.680Z,63.57
2018-06-05T02:23:29.682Z,64.43
2018-06-05T02:24:29.680Z,64.47
2018-06-05T02:25:29.674Z,64.53
2018-06-05T02:26:29.665Z,65.78
2018-06-05T02:27:29.663Z,65.39
2018-06-05T02:28:29.655Z,65.49
2018-06-05T02:29:29.672Z,65.78
2018-06-05T02:30:29.651Z,65.68
2018-06-05T02:31:29.655Z,65.20
2018-06-05T02:32:29.640Z,65.97
2018-06-05T02:33:29.643Z,65.59
2018-06-05T02:34:29.629Z,65.59
2018-06-05T02:35:29.625Z,65.39
2018-06-05T02:36:29.623Z,65.59
2018-06-05T02:37:29.635Z,65.68
2018-06-05T02:38:29.609Z,65.88
2018-06-05T02:39:29.606Z,65.68
2018-06-05T02:40:29.605Z,66.35
2018-06-05T02:41:29.593Z,65.97
2018-06-05T02:42:29.592Z,66.26
2018-06-05T02:43:29.590Z,66.16
2018-06-05T02:44:29.584Z,66.26
2018-06-05T02:45:29.579Z,66.26
2018-06-05T02:46:29.576Z,65.68
2018-06-05T02:47:29.571Z,65.55
2018-06-05T02:48:29.563Z,65.08
2018-06-05T02:49:29.555Z,64.82
2018-06-05T02:50:29.553Z,64.79
2018-06-05T02:51:29.557Z,65.20
2018-06-05T02:52:29.553Z,64.53
2018-06-05T02:53:29.546Z,64.53
2018-06-05T02:54:29.538Z,64.92
2018-06-05T02:55:29.528Z,65.55
2018-06-05T02:56:29.528Z,64.72
2018-06-05T02:57:29.520Z,64.79
2018-06-05T02:58:29.513Z,65.78
2018-06-05T02:59:29.511Z,65.78
2018-06-05T03:00:29.514Z,65.55
2018-06-05T03:01:29.506Z,65.88
2018-06-05T03:02:29.497Z,66.13
2018-06-05T03:03:29.492Z,65.88
2018-06-05T03:04:29.487Z,66.22
2018-06-05T03:05:29.487Z,66.64
2018-06-05T03:06:29.480Z,65.94
2018-06-05T03:07:29.475Z,65.68
2018-06-05T03:08:29.471Z,67.79
2018-06-05T03:09:29.464Z,66.26
2018-06-05T03:10:29.458Z,66.45
2018-06-05T03:11:29.454Z,66.45
2018-06-05T03:12:29.457Z,66.93
2018-06-05T03:13:29.442Z,66.55
2018-06-05T03:14:29.461Z,65.75
2018-06-05T03:15:29.441Z,65.55
2018-06-05T03:16:29.431Z,65.65
2018-06-05T03:17:29.425Z,64.89
2018-06-05T03:18:29.425Z,64.31
2018-06-05T03:19:29.431Z,63.54
2018-06-05T03:20:29.419Z,63.73
2018-06-05T03:21:29.406Z,63.83
2018-06-05T03:22:29.405Z,63.35
2018-06-05T03:23:29.401Z,63.54
2018-06-05T03:24:29.392Z,63.54
2018-06-05T03:25:29.403Z,64.31
2018-06-05T03:26:29.380Z,64.89
2018-06-05T03:27:29.378Z,64.31
2018-06-05T03:28:29.376Z,65.26
2018-06-05T03:29:29.368Z,66.03
2018-06-05T03:30:29.364Z,65.75
2018-06-05T03:31:29.357Z,65.46
2018-06-05T03:32:29.352Z,65.75
2018-06-05T03:33:29.353Z,65.55
2018-06-05T03:34:29.369Z,65.84
2018-06-05T03:35:29.343Z,65.65
2018-06-05T03:36:29.342Z,65.65
2018-06-05T03:37:29.330Z,67.28
2018-06-05T03:38:29.324Z,66.93
2018-06-05T03:39:29.318Z,67.28
2018-06-05T03:40:29.316Z,66.71
2018-06-05T03:41:29.312Z,67.38
2018-06-05T03:42:29.309Z,66.51
2018-06-05T03:43:29.305Z,67.09
2018-06-05T03:44:29.317Z,66.99
2018-06-05T03:45:29.292Z,67.66
2018-06-05T03:46:29.304Z,66.51
2018-06-05T03:47:29.284Z,66.61
2018-06-05T03:48:29.279Z,66.61
2018-06-05T03:49:29.269Z,67.18
2018-06-05T03:50:29.265Z,67.09
2018-06-05T03:51:29.261Z,67.28
2018-06-05T03:52:29.259Z,66.80
2018-06-05T03:53:29.253Z,67.28
2018-06-05T03:54:29.264Z,67.60
2018-06-05T03:55:29.245Z,68.62
2018-06-05T03:56:29.266Z,67.85
2018-06-05T03:57:29.244Z,67.76
2018-06-05T03:58:29.226Z,68.27
2018-06-05T03:59:29.247Z,67.50
2018-06-05T04:00:29.221Z,68.08
2018-06-05T04:01:29.216Z,67.32
2018-06-05T04:02:29.213Z,68.37
2018-06-05T04:03:29.211Z,67.28
2018-06-05T04:04:29.201Z,67.50
2018-06-05T04:05:29.196Z,67.09
2018-06-05T04:06:29.188Z,66.42
2018-06-05T04:07:29.184Z,65.94
2018-06-05T04:08:29.183Z,66.71
2018-06-05T04:09:29.176Z,66.13
2018-06-05T04:10:29.171Z,66.61
2018-06-05T04:11:29.166Z,66.61
2018-06-05T04:12:29.172Z,66.22
2018-06-05T04:13:29.154Z,66.61
2018-06-05T04:14:29.157Z,66.13
2018-06-05T04:15:29.157Z,66.22
2018-06-05T04:16:29.155Z,66.22
2018-06-05T04:17:29.138Z,66.32
2018-06-05T04:18:29.147Z,66.13
2018-06-05T04:19:29.131Z,65.08
2018-06-05T04:20:29.125Z,65.46
2018-06-05T04:21:29.127Z,65.08
2018-06-05T04:22:29.116Z,64.69
2018-06-05T04:23:29.116Z,63.54
2018-06-05T04:24:29.111Z,63.73
2018-06-05T04:25:29.108Z,65.08
2018-06-05T04:26:29.095Z,64.69
2018-06-05T04:27:29.090Z,65.08
2018-06-05T04:28:29.091Z,64.50
2018-06-05T04:29:29.098Z,64.50
2018-06-05T04:30:29.074Z,65.08
2018-06-05T04:31:29.070Z,64.98
2018-06-05T04:32:29.062Z,65.65
2018-06-05T04:33:29.057Z,65.65
2018-06-05T04:34:29.053Z,64.31
2018-06-05T04:35:29.052Z,64.31
2018-06-05T04:36:29.048Z,64.69
2018-06-05T04:37:29.047Z,64.12
2018-06-05T04:38:29.032Z,63.35
2018-06-05T04:39:29.030Z,63.73
2018-06-05T04:40:29.026Z,64.59
2018-06-05T04:41:29.022Z,63.35
2018-06-05T04:42:29.021Z,63.45
2018-06-05T04:43:29.014Z,62.46
2018-06-05T04:44:29.009Z,62.55
2018-06-05T04:45:29.011Z,62.07
2018-06-05T04:46:28.999Z,62.74
2018-06-05T04:47:28.989Z,62.36
2018-06-05T04:48:28.985Z,63.13
2018-06-05T04:49:28.996Z,62.30
2018-06-05T04:50:28.983Z,62.84
2018-06-05T04:51:28.974Z,63.32
2018-06-05T04:52:28.972Z,63.64
2018-06-05T04:53:28.963Z,64.31
2018-06-05T04:54:28.967Z,64.22
2018-06-05T04:55:28.955Z,63.64
2018-06-05T04:56:28.945Z,63.54
2018-06-05T04:57:28.943Z,64.89
2018-06-05T04:58:28.939Z,65.26
2018-06-05T04:59:28.932Z,64.89
2018-06-05T05:00:28.931Z,65.17
2018-06-05T05:01:28.920Z,65.46
2018-06-05T05:02:28.914Z,65.46
2018-06-05T05:03:28.922Z,64.50
2018-06-05T05:04:28.909Z,64.79
2018-06-05T05:05:28.904Z,65.75
2018-06-05T05:06:28.896Z,65.75
2018-06-05T05:07:28.893Z,66.51
2018-06-05T05:08:28.885Z,66.32
2018-06-05T05:09:28.884Z,66.22
2018-06-05T05:10:28.876Z,66.13
2018-06-05T05:11:28.878Z,65.55
2018-06-05T05:12:28.871Z,65.75
2018-06-05T05:13:28.866Z,65.75
2018-06-05T05:14:28.856Z,65.55
2018-06-05T05:15:28.852Z,65.65
2018-06-05T05:16:28.855Z,65.26
2018-06-05T05:17:28.843Z,65.26
2018-06-05T05:18:28.842Z,66.51
2018-06-05T05:19:28.843Z,66.22
2018-06-05T05:20:28.829Z,66.71
2018-06-05T05:21:28.830Z,65.75
2018-06-05T05:22:28.819Z,66.38
2018-06-05T05:23:28.814Z,66.38
2018-06-05T05:24:28.808Z,66.29
2018-06-05T05:25:28.804Z,66.38
2018-06-05T05:26:28.802Z,66.86
2018-06-05T05:27:28.795Z,66.77
2018-06-05T05:28:28.794Z,67.25
2018-06-05T05:29:28.788Z,67.63
2018-06-05T05:30:28.788Z,67.09
2018-06-05T05:31:28.777Z,67.28
2018-06-05T05:32:28.773Z,67.18
2018-06-05T05:33:28.770Z,67.47
2018-06-05T05:34:28.763Z,68.05
2018-06-05T05:35:28.760Z,68.05
2018-06-05T05:36:28.750Z,67.54
2018-06-05T05:37:28.747Z,67.91
2018-06-05T05:38:28.744Z,68.01
2018-06-05T05:39:28.739Z,68.11
2018-06-05T05:40:28.733Z,67.82
2018-06-05T05:41:28.726Z,67.54
2018-06-05T05:42:28.719Z,66.86
2018-06-05T05:43:28.717Z,66.67
2018-06-05T05:44:28.712Z,66.38
2018-06-05T05:45:28.706Z,66.77
2018-06-05T05:46:28.716Z,66.09
2018-06-05T05:47:28.695Z,66.48
2018-06-05T05:48:28.692Z,67.25
2018-06-05T05:49:28.712Z,67.05
2018-06-05T05:50:28.685Z,67.25
2018-06-05T05:51:28.717Z,67.44
2018-06-05T05:52:28.677Z,67.85
2018-06-05T05:53:28.677Z,67.85
2018-06-05T05:54:28.669Z,68.24
2018-06-05T05:55:28.660Z,69.39
2018-06-05T05:56:28.656Z,67.85
2018-06-05T05:57:28.645Z,66.61
2018-06-05T05:58:28.642Z,67.76
2018-06-05T05:59:28.638Z,68.62
2018-06-05T06:00:28.637Z,69.68
2018-06-05T06:01:28.638Z,69.20
2018-06-05T06:02:28.625Z,69.77
2018-06-05T06:03:28.633Z,69.58
2018-06-05T06:04:28.615Z,69.96
2018-06-05T06:05:28.643Z,69.68
2018-06-05T06:06:28.603Z,70.06
2018-06-05T06:07:28.602Z,69.87
2018-06-05T06:08:28.595Z,69.48
2018-06-05T06:09:28.589Z,69.68
2018-06-05T06:10:28.589Z,69.87
2018-06-05T06:11:28.656Z,69.68
2018-06-05T06:12:28.611Z,69.58
2018-06-05T06:13:28.602Z,69.58
2018-06-05T06:14:28.569Z,70.35
2018-06-05T06:15:28.570Z,69.77
2018-06-05T06:16:28.557Z,69.77
2018-06-05T06:17:28.556Z,70.35
2018-06-05T06:18:28.547Z,69.93
2018-06-05T06:19:28.542Z,70.03
2018-06-05T06:20:28.543Z,69.64
2018-06-05T06:21:28.545Z,69.64
2018-06-05T06:22:28.549Z,69.74
2018-06-05T06:23:28.528Z,68.78
2018-06-05T06:24:28.519Z,69.07
2018-06-05T06:25:28.518Z,69.64
2018-06-05T06:26:28.534Z,69.74
2018-06-05T06:27:28.515Z,70.12
2018-06-05T06:28:28.500Z,69.74
2018-06-05T06:29:28.498Z,69.93
2018-06-05T06:30:28.492Z,70.92
2018-06-05T06:31:28.488Z,70.92
2018-06-05T06:32:28.486Z,71.02
2018-06-05T06:33:28.484Z,71.21
2018-06-05T06:34:28.478Z,70.64
2018-06-05T06:35:28.476Z,72.17
2018-06-05T06:36:28.468Z,72.27
2018-06-05T06:37:28.460Z,72.55
2018-06-05T06:38:28.500Z,72.17
2018-06-05T06:39:28.452Z,72.64
2018-06-05T06:40:28.445Z,72.94
2018-06-05T06:41:28.441Z,73.51
2018-06-05T06:42:28.452Z,73.90
2018-06-05T06:43:28.433Z,72.84
2018-06-05T06:44:28.427Z,73.51
2018-06-05T06:45:28.422Z,73.13
2018-06-05T06:46:28.417Z,72.94
2018-06-05T06:47:28.415Z,73.32
2018-06-05T06:48:28.436Z,72.94
2018-06-05T06:49:28.408Z,73.61
2018-06-05T06:50:28.402Z,72.84
2018-06-05T06:51:28.398Z,73.61
2018-06-05T06:52:28.393Z,72.74
2018-06-05T06:53:28.386Z,73.32
2018-06-05T06:54:28.396Z,73.32
2018-06-05T06:55:28.385Z,73.90
2018-06-05T06:56:28.381Z,73.61
2018-06-05T06:57:28.375Z,73.41
2018-06-05T06:58:28.374Z,73.32
2018-06-05T06:59:28.365Z,72.55
2018-06-05T07:00:28.363Z,71.98
2018-06-05T07:01:28.348Z,72.74
2018-06-05T07:02:28.354Z,72.84
2018-06-05T07:03:28.353Z,71.31
2018-06-05T07:04:28.355Z,71.40
2018-06-05T07:05:28.333Z,70.54
2018-06-05T07:06:28.333Z,69.58
2018-06-05T07:07:28.329Z,69.87
2018-06-05T07:08:28.325Z,70.44
2018-06-05T07:09:28.335Z,70.83
2018-06-05T07:10:28.313Z,71.88
2018-06-05T07:11:28.319Z,71.69
2018-06-05T07:12:28.307Z,71.78
2018-06-05T07:13:28.298Z,72.45
2018-06-05T07:14:28.298Z,73.03
2018-06-05T07:15:28.293Z,72.84
2018-06-05T07:16:28.317Z,73.32
2018-06-05T07:17:28.305Z,73.61
2018-06-05T07:18:28.279Z,72.74
2018-06-05T07:19:28.275Z,72.36
2018-06-05T07:20:28.268Z,71.78
2018-06-05T07:21:28.268Z,70.83
2018-06-05T07:22:28.291Z,70.25
2018-06-05T07:23:28.288Z,69.96
2018-06-05T07:24:28.256Z,69.77
2018-06-05T07:25:28.251Z,68.59
2018-06-05T07:26:28.243Z,68.49
2018-06-05T07:27:28.237Z,67.15
2018-06-05T07:28:28.258Z,66.58
2018-06-05T07:29:28.228Z,66.29
2018-06-05T07:30:28.250Z,65.81
2018-06-05T07:31:28.224Z,67.25
2018-06-05T07:32:28.221Z,66.77
2018-06-05T07:33:28.217Z,66.00
2018-06-05T07:34:28.758Z,66.09
2018-06-05T07:35:28.205Z,66.38
2018-06-05T07:36:28.210Z,66.48
2018-06-05T07:37:28.195Z,66.29
2018-06-05T07:38:28.203Z,66.67
2018-06-05T07:39:28.188Z,67.25
2018-06-05T07:40:28.217Z,67.54
2018-06-05T07:41:28.178Z,67.95
2018-06-05T07:42:28.181Z,68.72
2018-06-05T07:43:28.172Z,69.58
2018-06-05T07:44:28.221Z,70.92
2018-06-05T07:45:28.161Z,73.41
2018-06-05T07:46:28.151Z,73.22
2018-06-05T07:47:28.150Z,73.41
2018-06-05T07:48:28.142Z,74.47
2018-06-05T07:49:28.137Z,74.08
2018-06-05T07:50:28.136Z,75.52
2018-06-05T07:51:28.140Z,73.61
2018-06-05T07:52:28.135Z,73.32
2018-06-05T07:53:28.123Z,72.07
2018-06-05T07:54:28.122Z,72.45
2018-06-05T07:55:28.113Z,72.36
2018-06-05T07:57:49.779Z,72.64
2018-06-05T07:58:49.739Z,72.36
2018-06-05T07:59:49.738Z,73.80
2018-06-05T08:00:49.728Z,73.61
2018-06-05T08:01:49.723Z,74.18
2018-06-05T08:02:49.717Z,75.04
2018-06-05T08:03:49.722Z,74.57
2018-06-05T08:04:49.713Z,74.95
2018-06-05T08:05:49.710Z,74.95
2018-06-05T08:06:49.698Z,76.19
2018-06-05T08:07:49.694Z,76.71
2018-06-05T08:08:49.709Z,77.19
2018-06-05T08:09:49.690Z,77.86
2018-06-05T08:10:49.685Z,78.15
2018-06-05T08:11:49.687Z,77.67
2018-06-05T08:12:49.680Z,77.34
2018-06-05T08:13:49.671Z,76.19
2018-06-05T08:14:49.673Z,76.19
2018-06-05T08:15:49.666Z,76.32
2018-06-05T08:16:49.664Z,77.25
2018-06-05T08:17:49.668Z,76.14
2018-06-05T08:18:49.655Z,76.62
2018-06-05T08:19:49.657Z,76.48
2018-06-05T08:20:49.646Z,77.44
2018-06-05T08:21:49.638Z,77.29
2018-06-05T08:22:49.639Z,76.90
2018-06-05T08:23:49.633Z,75.62
2018-06-05T08:24:49.631Z,74.08
2018-06-05T08:25:49.636Z,74.95
2018-06-05T08:26:49.631Z,73.90
2018-06-05T08:27:49.639Z,74.47
2018-06-05T08:28:49.609Z,74.95
2018-06-05T08:29:49.611Z,74.76
2018-06-05T08:30:49.603Z,74.27
2018-06-05T08:31:49.610Z,75.37
2018-06-05T08:32:49.596Z,75.18
2018-06-05T08:33:49.600Z,75.65
2018-06-05T08:34:49.585Z,77.19
2018-06-05T08:35:49.581Z,79.11
2018-06-05T08:36:49.587Z,78.25
2018-06-05T08:37:49.643Z,77.48
2018-06-05T08:38:49.574Z,76.90
2018-06-05T08:39:49.569Z,77.00
2018-06-05T08:40:49.569Z,75.75
2018-06-05T08:41:49.562Z,75.65
2018-06-05T08:42:49.555Z,75.65
2018-06-05T08:43:49.553Z,75.65
2018-06-05T08:44:49.546Z,76.17
2018-06-05T08:45:49.543Z,76.65
2018-06-05T08:46:49.537Z,78.00
2018-06-05T08:47:49.535Z,78.19
2018-06-05T08:48:49.532Z,78.28
2018-06-05T08:49:49.525Z,77.90
2018-06-05T08:50:49.526Z,79.05
2018-06-05T08:51:49.532Z,77.61
2018-06-05T08:52:49.514Z,77.80
2018-06-05T08:53:49.510Z,78.38
2018-06-05T08:54:49.508Z,78.28
2018-06-05T08:55:49.505Z,78.19
2018-06-05T08:56:49.500Z,79.44
2018-06-05T08:57:49.495Z,80.68
2018-06-05T08:58:49.509Z,79.24
2018-06-05T08:59:49.495Z,78.38
2018-06-05T09:00:49.492Z,79.34
2018-06-05T09:01:49.478Z,79.63
2018-06-05T09:02:49.480Z,79.05
2018-06-05T09:03:49.470Z,79.53
2018-06-05T09:04:49.478Z,78.86
2018-06-05T09:05:49.466Z,78.47
2018-06-05T09:06:49.463Z,78.09
2018-06-05T09:07:49.459Z,78.09
2018-06-05T09:08:49.458Z,78.57
2018-06-05T09:09:49.460Z,78.90
2018-06-05T09:10:49.465Z,79.38
2018-06-05T09:11:49.451Z,80.20
2018-06-05T09:12:49.454Z,79.44
2018-06-05T09:13:49.446Z,78.19
2018-06-05T09:14:49.434Z,78.28
2018-06-05T09:15:49.433Z,76.94
2018-06-05T09:16:49.433Z,76.27
2018-06-05T09:17:49.441Z,77.13
2018-06-05T09:18:49.422Z,76.42
2018-06-05T09:19:49.417Z,76.14
2018-06-05T09:20:49.413Z,75.56
2018-06-05T09:21:49.415Z,75.46
2018-06-05T09:22:49.411Z,75.31
2018-06-05T09:23:49.401Z,77.29
2018-06-05T09:24:49.404Z,75.95
2018-06-05T09:25:49.402Z,74.60
2018-06-05T09:26:49.402Z,76.23
2018-06-05T09:27:49.389Z,76.14
2018-06-05T09:28:49.412Z,75.89
2018-06-05T09:29:49.388Z,76.46
2018-06-05T09:30:49.381Z,76.17
2018-06-05T09:31:49.378Z,77.51
2018-06-05T09:32:49.373Z,78.19
2018-06-05T09:33:49.367Z,78.00
2018-06-05T09:34:49.367Z,78.00
2018-06-05T09:35:49.361Z,77.90
2018-06-05T09:36:49.359Z,77.51
2018-06-05T09:37:49.353Z,78.42
2018-06-05T09:38:49.347Z,78.99
2018-06-05T09:39:49.350Z,79.47
2018-06-05T09:40:49.344Z,78.99
2018-06-05T09:41:49.374Z,80.73
2018-06-05T09:42:49.341Z,79.47
2018-06-05T09:43:49.333Z,79.76
2018-06-05T09:44:49.333Z,80.38
2018-06-05T09:45:49.333Z,81.43
2018-06-05T09:46:49.337Z,81.63
2018-06-05T09:47:49.325Z,81.43
2018-06-05T09:48:49.317Z,81.01
2018-06-05T09:49:49.315Z,81.20
2018-06-05T09:50:49.312Z,82.07
2018-06-05T09:51:49.310Z,81.40
2018-06-05T09:52:49.305Z,81.20
2018-06-05T09:53:49.299Z,81.59
2018-06-05T09:54:49.365Z,80.34
2018-06-05T09:55:49.342Z,80.53
2018-06-05T09:56:49.291Z,80.91
2018-06-05T09:57:49.312Z,80.15
2018-06-05T09:58:49.341Z,81.49
2018-06-05T09:59:49.380Z,80.91
2018-06-05T10:00:49.282Z,80.91
2018-06-05T10:01:49.276Z,82.35
2018-06-05T10:02:49.275Z,82.16
2018-06-05T10:03:49.295Z,80.11
2018-06-05T10:04:49.276Z,78.86
2018-06-05T10:05:49.266Z,78.28
2018-06-05T10:06:49.264Z,77.80
2018-06-05T10:07:49.254Z,78.99
2018-06-05T10:08:49.256Z,79.09
2018-06-05T10:09:49.252Z,79.47
2018-06-05T10:10:49.260Z,80.05
2018-06-05T10:11:49.249Z,79.96
2018-06-05T10:12:49.240Z,80.34
2018-06-05T10:13:49.233Z,79.86
2018-06-05T10:14:49.259Z,80.15
2018-06-05T10:15:49.234Z,80.34
2018-06-05T10:16:49.235Z,80.24
2018-06-05T10:17:49.225Z,81.43
2018-06-05T10:18:49.219Z,81.43
2018-06-05T10:19:49.223Z,83.07
2018-06-05T10:20:49.216Z,82.49
2018-06-05T10:21:49.212Z,82.10
2018-06-05T10:22:49.207Z,80.96
2018-06-05T10:23:49.203Z,81.34
2018-06-05T10:24:49.200Z,82.10
2018-06-05T10:25:49.196Z,84.03
2018-06-05T10:26:49.202Z,83.16
2018-06-05T10:27:49.197Z,84.22
2018-06-05T10:28:49.196Z,83.16
2018-06-05T10:29:49.205Z,82.68
2018-06-05T10:30:49.184Z,82.97
2018-06-05T10:31:49.180Z,82.97
2018-06-05T10:32:49.183Z,80.73
2018-06-05T10:33:49.173Z,83.12
2018-06-05T10:34:49.188Z,80.82
2018-06-05T10:35:49.170Z,82.07
2018-06-05T10:36:49.168Z,81.10
2018-06-05T10:37:49.163Z,78.52
2018-06-05T10:38:49.161Z,81.20
2018-06-05T10:39:49.157Z,81.49
2018-06-05T10:40:49.158Z,81.20
2018-06-05T10:41:49.151Z,79.57
2018-06-05T10:42:49.153Z,81.10
2018-06-05T10:43:49.146Z,81.40
2018-06-05T10:44:49.142Z,81.97
2018-06-05T10:45:49.141Z,82.78
2018-06-05T10:46:49.177Z,83.45
2018-06-05T10:47:49.133Z,82.59
2018-06-05T10:48:49.153Z,85.08
2018-06-05T10:49:49.126Z,84.31
2018-06-05T10:50:49.131Z,84.74
2018-06-05T10:51:49.119Z,87.24
2018-06-05T10:52:49.123Z,86.47
2018-06-05T10:53:49.170Z,85.22
2018-06-05T10:54:49.117Z,87.05
2018-06-05T10:55:49.118Z,85.07
2018-06-05T10:56:49.106Z,86.28
2018-06-05T10:57:49.111Z,86.04
2018-06-05T10:58:49.105Z,85.27
2018-06-05T10:59:58.032Z,87.38
2018-06-05T11:01:42.795Z,88.96
2018-06-05T11:02:42.789Z,88.67
2018-06-05T11:03:42.742Z,88.77
2018-06-05T11:04:42.739Z,89.06
2018-06-05T11:05:42.743Z,88.14
2018-06-05T11:06:42.719Z,88.81
2018-06-05T11:07:42.720Z,89.01
2018-06-05T11:08:42.719Z,88.53
2018-06-05T11:09:42.718Z,88.91
2018-06-05T11:10:42.717Z,89.97
2018-06-05T11:11:42.717Z,88.91
2018-06-05T11:12:42.716Z,88.77
2018-06-05T11:13:42.709Z,89.15
2018-06-05T11:14:42.705Z,88.29
2018-06-05T11:15:42.719Z,88.96
2018-06-05T11:16:42.710Z,88.87
2018-06-05T11:17:42.704Z,88.87
2018-06-05T11:18:42.702Z,89.01
2018-06-05T11:19:42.701Z,88.87
2018-06-05T11:20:42.699Z,88.39
2018-06-05T11:21:42.697Z,88.57
2018-06-05T11:22:42.713Z,88.15
2018-06-05T11:23:42.720Z,87.29
2018-06-05T11:24:42.693Z,87.29
2018-06-05T11:25:42.691Z,86.80
2018-06-05T11:26:42.688Z,86.42
2018-06-05T11:27:42.690Z,87.38
2018-06-05T11:28:42.688Z,87.19
2018-06-05T11:29:44.554Z,88.77
2018-06-05T11:30:42.689Z,88.57
2018-06-05T11:31:42.683Z,88.77
2018-06-05T11:32:42.689Z,88.10
2018-06-05T11:33:42.678Z,87.71
2018-06-05T11:34:43.568Z,88.48
2018-06-05T11:35:42.695Z,88.29
2018-06-05T11:36:42.694Z,89.06
2018-06-05T11:37:42.679Z,88.15
2018-06-05T11:38:42.673Z,88.06
2018-06-05T11:39:42.683Z,88.06
2018-06-05T11:40:42.675Z,88.63
2018-06-05T11:41:42.670Z,88.06
2018-06-05T11:42:42.668Z,87.48
2018-06-05T11:43:42.664Z,87.67
2018-06-05T11:44:42.663Z,88.24
2018-06-05T11:45:42.660Z,88.44
2018-06-05T11:47:42.658Z,87.13
2018-06-05T11:48:42.655Z,88.10
2018-06-05T11:49:42.660Z,87.71
2018-06-05T11:50:42.659Z,87.90
2018-06-05T11:51:42.657Z,87.71
2018-06-05T11:52:42.675Z,88.53
2018-06-05T11:53:42.665Z,88.53
2018-06-05T11:54:42.648Z,89.39
2018-06-05T11:55:42.665Z,89.20
2018-06-05T11:56:42.684Z,88.43
2018-06-05T11:57:42.658Z,88.24
2018-06-05T11:58:42.680Z,88.71
2018-06-05T11:59:42.673Z,88.62
2018-06-05T12:00:42.658Z,88.28
2018-06-05T12:01:42.700Z,86.31
2018-06-05T12:02:42.675Z,88.76
2018-06-05T12:03:42.648Z,89.15
2018-06-05T12:04:42.650Z,89.19
2018-06-05T12:05:42.636Z,89.19
2018-06-05T12:06:42.642Z,88.90
2018-06-05T12:07:42.637Z,88.81
2018-06-05T12:08:42.640Z,88.71
2018-06-05T12:09:42.641Z,88.23
2018-06-05T12:10:42.656Z,88.42
2018-06-05T12:11:42.656Z,89.00
2018-06-05T12:12:42.637Z,88.51
2018-06-05T12:13:42.666Z,88.32
2018-06-05T12:14:42.647Z,88.04
2018-06-05T12:15:42.634Z,86.98
2018-06-05T12:16:42.635Z,88.04
2018-06-05T12:17:42.643Z,87.55
2018-06-05T12:18:42.644Z,87.26
2018-06-05T12:19:42.633Z,87.94
2018-06-05T12:20:42.633Z,88.42
2018-06-05T12:21:42.637Z,88.81
2018-06-05T12:22:42.634Z,88.65
2018-06-05T12:23:42.633Z,88.75
2018-06-05T12:24:42.629Z,86.44
2018-06-05T12:25:42.699Z,86.35
2018-06-05T12:26:42.630Z,86.63
2018-06-05T12:27:42.641Z,86.98
2018-06-05T12:28:42.643Z,88.13
2018-06-05T12:29:42.632Z,87.74
2018-06-05T12:30:42.634Z,88.42
2018-06-05T12:31:42.634Z,88.71
2018-06-05T12:32:42.637Z,88.23
2018-06-05T12:33:42.627Z,88.51
2018-06-05T12:34:42.630Z,88.42
2018-06-05T12:35:42.643Z,88.42
2018-06-05T12:36:42.629Z,88.42
2018-06-05T12:37:42.629Z,88.42
2018-06-05T12:38:42.631Z,88.32
2018-06-05T12:39:42.633Z,88.71
2018-06-05T12:40:42.636Z,88.71
2018-06-05T12:41:42.640Z,88.13
2018-06-05T12:42:42.634Z,88.51
2018-06-05T12:43:42.629Z,88.23
2018-06-05T12:44:42.634Z,88.61
2018-06-05T12:45:42.630Z,88.81
2018-06-05T12:46:42.629Z,88.51
2018-06-05T12:47:42.629Z,88.81
2018-06-05T12:48:42.630Z,88.81
2018-06-05T12:49:42.628Z,88.23
2018-06-05T12:50:42.633Z,88.61
2018-06-05T12:51:42.633Z,88.23
2018-06-05T12:52:42.632Z,87.74
2018-06-05T12:53:42.627Z,88.23
2018-06-05T12:54:42.627Z,88.90
2018-06-05T12:55:42.623Z,89.00